Latest Weather Observations for Rowley Shoals

IDW60801

Issued at 5:13 pm WST Friday 30 January 2015 (issued every 30 minutes, with the page automatically refreshed every 10 minutes)

About weather observations | Map of weather stations | Latest weather observations for WA | Other Formats
Station Details ID: 200713 Name: ROWLEY SHOALS Lat: -17.52 Lon: 118.95 Height: 0.0 m
Data from the previous 72 hours. | See also: Recent months for locations in Western Australia
Date/Time
WST
Temp
°C
App
Temp
°C
Dew
Point
Rel
Hum
%
Delta-T
°C
Wind Press
QNH
hPa
Press
MSL
hPa
Rain
since 9 am
mm
Dir
 
Spd
km/h
Gust
km/h
Spd
kts
Gust
kts
30/05:00pm - - - - - WNW 15 17 8 9 1006.0 1006.0 -
30/04:30pm - - - - - WNW 11 15 6 8 1006.1 1006.1 -
30/04:00pm - - - - - WNW 11 17 6 9 1006.2 1006.1 -
30/03:30pm - - - - - W 13 17 7 9 1006.3 1006.3 -
30/03:00pm - - - - - W 17 20 9 11 1006.4 1006.4 -
30/02:30pm - - - - - W 15 19 8 10 1006.8 1006.8 -
30/02:00pm - - - - - W 15 19 8 10 1007.1 1007.0 -
30/01:30pm - - - - - WSW 13 19 7 10 1007.6 1007.6 -
30/01:00pm - - - - - W 13 17 7 9 1007.9 1007.7 -
30/12:30pm - - - - - WSW 13 19 7 10 1008.3 1008.3 -
30/12:00pm - - - - - WSW 15 19 8 10 1008.3 1008.1 -
30/11:30am - - - - - WSW 13 17 7 9 1008.5 1008.5 -
30/11:00am - - - - - WSW 13 17 7 9 1008.7 1008.4 -
30/10:30am - - - - - WSW 15 19 8 10 1008.8 1008.8 -
30/10:00am - - - - - W 15 19 8 10 1008.7 1008.5 -
30/09:30am - - - - - W 19 20 10 11 1008.5 1008.5 -
30/09:00am - - - - - W 19 22 10 12 1008.4 1008.2 -
30/08:30am - - - - - WSW 17 22 9 12 1008.4 1008.4 -
30/08:00am - - - - - SW 17 20 9 11 1008.3 1008.2 -
30/07:30am - - - - - WSW 20 24 11 13 1007.9 1007.9 -
30/07:00am - - - - - WSW 20 26 11 14 1007.6 1007.6 -
30/06:30am - - - - - WSW 20 26 11 14 1007.3 1007.3 -
30/06:00am - - - - - W 22 26 12 14 1007.1 1007.2 -
30/05:30am - - - - - WSW 20 22 11 12 1007.0 1007.0 -
30/05:00am - - - - - WSW 17 20 9 11 1006.5 1006.3 -
30/04:30am - - - - - WSW 20 26 11 14 1006.7 1006.7 -
30/04:00am - - - - - W 22 28 12 15 1006.2 1005.9 -
30/03:30am - - - - - W 24 28 13 15 1006.4 1006.4 -
30/03:00am - - - - - W 24 28 13 15 1006.6 1006.4 -
30/02:30am - - - - - W 24 28 13 15 1006.5 1006.5 -
30/02:00am - - - - - W 20 24 11 13 1006.8 1006.7 -
30/01:30am - - - - - WNW 22 26 12 14 1006.9 1006.9 -
30/01:00am - - - - - WNW 22 26 12 14 1007.0 1006.7 -
30/12:30am - - - - - WNW 17 22 9 12 1007.4 1007.4 -
30/12:00am - - - - - WNW 15 20 8 11 1007.7 1007.7 -
 
Date/Time
WST
Temp
°C
App
Temp
°C
Dew
Point
Rel
Hum
%
Delta-T
°C
Wind Press
QNH
hPa
Press
MSL
hPa
Rain
since 9 am
mm
Dir
 
Spd
km/h
Gust
km/h
Spd
kts
Gust
kts
29/11:30pm - - - - - WNW 9 15 5 8 1008.1 1008.1 -
29/11:00pm - - - - - W 11 15 6 8 1008.3 1008.2 -
29/10:30pm - - - - - W 11 15 6 8 1008.3 1008.3 -
29/10:00pm - - - - - W 11 15 6 8 1007.9 1007.9 -
29/09:30pm - - - - - WNW 11 17 6 9 1007.3 1007.3 -
29/09:00pm - - - - - W 13 17 7 9 1006.7 1006.7 -
29/08:30pm - - - - - WNW 13 17 7 9 1006.4 1006.4 -
29/08:19pm 28.6 - - - - W 15 20 8 11 1006.3 1006.3 -
29/08:16pm 3.0 - - - - W 15 20 8 11 1006.2 1006.2 -
29/08:12pm 28.5 - - - - W 15 19 8 10 1006.1 1006.1 -
29/08:11pm -42.6 - - - - W 15 19 8 10 1006.1 1006.1 -
29/08:00pm 28.6 - - - - W 11 15 6 8 1006.1 1006.0 -
29/07:57pm 28.4 - - - - W 13 17 7 9 1006.1 1006.1 -
29/07:56pm 12.5 - - - - W 13 17 7 9 1006.1 1006.1 -
29/07:54pm 28.5 - - - - W 13 17 7 9 1006.1 1006.1 -
29/07:52pm -47.9 - - - - W 13 17 7 9 1006.1 1006.1 -
29/07:51pm -33.9 - - - - W 13 17 7 9 1006.1 1006.1 -
29/07:50pm -23.6 - - - - W 13 17 7 9 1006.0 1006.0 -
29/07:49pm -9.9 - - - - WNW 13 17 7 9 1006.0 1006.0 -
29/07:48pm -25.0 - - - - WNW 13 17 7 9 1006.0 1006.0 -
29/07:46pm -15.7 - - - - WNW 13 17 7 9 1005.9 1005.9 -
29/07:41pm -9.2 - - - - WNW 13 17 7 9 1005.9 1005.9 -
29/07:40pm -3.1 - - - - W 13 17 7 9 1005.9 1005.9 -
29/07:39pm 8.1 - - - - W 13 17 7 9 1005.9 1005.9 -
29/07:38pm -5.0 - - - - W 13 17 7 9 1005.9 1005.9 -
29/07:36pm -17.1 - - - - W 13 17 7 9 1005.9 1005.9 -
29/07:35pm -25.7 - - - - W 11 17 6 9 1005.9 1005.9 -
29/07:34pm -18.7 - - - - W 11 17 6 9 1005.9 1005.9 -
29/07:33pm -29.3 - - - - W 11 17 6 9 1005.9 1005.9 -
29/07:32pm -21.5 - - - - W 11 15 6 8 1005.9 1005.9 -
29/07:31pm -16.5 - - - - W 11 15 6 8 1005.9 1005.9 -
29/07:30pm -30.4 - - - - W 11 15 6 8 1005.8 1005.8 -
29/07:06pm -23.5 - - - - W 13 17 7 9 1005.5 1005.5 -
29/07:05pm -32.0 - - - - W 13 17 7 9 1005.5 1005.5 -
29/07:03pm -9.8 - - - - W 15 17 8 9 1005.5 1005.5 -
29/07:02pm 6.3 - - - - W 15 17 8 9 1005.4 1005.4 -
29/07:00pm 28.4 - - - - W 15 19 8 10 1005.4 1005.4 -
29/06:58pm 28.4 - - - - W 17 22 9 12 1005.4 1005.4 -
29/06:57pm -41.7 - - - - W 17 24 9 13 1005.4 1005.4 -
29/06:56pm -16.8 - - - - W 17 24 9 13 1005.3 1005.3 -
29/06:55pm 0.9 - - - - W 17 24 9 13 1005.3 1005.3 -
29/06:53pm -13.5 - - - - W 17 24 9 13 1005.3 1005.3 -
29/06:51pm 8.6 - - - - W 15 24 8 13 1005.3 1005.3 -
29/06:50pm -43.4 - - - - W 15 24 8 13 1005.2 1005.2 -
29/06:49pm -35.8 - - - - W 15 24 8 13 1005.2 1005.2 -
29/06:48pm 16.9 - - - - W 15 24 8 13 1005.2 1005.2 -
29/06:46pm 1.6 - - - - W 13 17 7 9 1005.1 1005.1 -
29/06:45pm 16.6 - - - - W 13 17 7 9 1005.1 1005.1 -
29/06:43pm 26.6 - - - - W 13 17 7 9 1005.1 1005.1 -
29/06:42pm 21.4 - - - - W 15 19 8 10 1005.1 1005.1 -
29/06:33pm 28.2 - - - - W 15 20 8 11 1005.1 1005.1 -
29/06:32pm 13.1 - - - - W 15 20 8 11 1005.1 1005.1 -
29/06:30pm 25.2 - - - - WSW 17 20 9 11 1005.0 1005.0 -
29/06:00pm 28.5 - - - - W 15 20 8 11 1004.8 1004.8 -
29/05:30pm 28.7 - - - - W 15 19 8 10 1004.8 1004.8 -
29/05:00pm 28.8 - - - - WSW 15 20 8 11 1004.8 1004.7 -
29/04:30pm 28.6 - - - - WSW 19 20 10 11 1004.8 1004.8 -
29/04:00pm 28.6 - - - - W 17 20 9 11 1004.9 1004.9 -
29/03:30pm 28.5 - - - - WSW 17 22 9 12 1005.1 1005.1 -
29/03:00pm 28.5 - - - - W 20 26 11 14 1005.0 1004.9 -
29/02:30pm 28.6 - - - - W 19 24 10 13 1005.2 1005.2 -
29/02:26pm 28.7 - - - - W 19 22 10 12 1005.2 1005.2 -
29/02:25pm 22.5 - - - - W 19 22 10 12 1005.2 1005.2 -
29/02:24pm 14.8 - - - - W 19 22 10 12 1005.2 1005.2 -
29/02:23pm -0.3 - - - - W 19 22 10 12 1005.2 1005.2 -
29/02:00pm 28.4 - - - - W 19 22 10 12 1005.4 1005.3 -
29/01:33pm 27.7 - - - - WNW 17 20 9 11 1005.8 1005.8 -
29/01:32pm 20.3 - - - - WNW 17 20 9 11 1005.8 1005.8 -
29/01:31pm 6.3 - - - - WNW 17 20 9 11 1005.8 1005.8 -
29/01:30pm -9.9 - - - - WNW 17 20 9 11 1005.8 1005.8 -
29/01:28pm -16.8 - - - - WNW 17 20 9 11 1005.8 1005.8 -
29/01:27pm -11.7 - - - - WNW 17 20 9 11 1005.9 1005.9 -
29/01:02pm 28.5 - - - - WNW 17 20 9 11 1006.4 1006.4 -
29/01:01pm 12.0 - - - - WNW 15 20 8 11 1006.4 1006.4 -
29/01:00pm 28.6 - - - - WNW 15 20 8 11 1006.4 1006.1 -
29/12:59pm 0.2 - - - - WNW 15 20 8 11 1006.4 1006.4 -
29/12:58pm 8.4 - - - - WNW 15 20 8 11 1006.5 1006.5 -
29/12:54pm 28.4 - - - - WNW 15 19 8 10 1006.5 1006.5 -
29/12:52pm 14.7 - - - - WNW 15 17 8 9 1006.5 1006.5 -
29/12:51pm 4.0 - - - - WNW 15 17 8 9 1006.5 1006.5 -
29/12:50pm -1.6 - - - - WNW 15 17 8 9 1006.6 1006.6 -
29/12:48pm -8.6 - - - - WNW 15 17 8 9 1006.6 1006.6 -
29/12:47pm -27.9 - - - - WNW 15 17 8 9 1006.6 1006.6 -
29/12:30pm 28.8 - - - - WNW 13 17 7 9 1006.8 1006.8 -
29/12:00pm 28.7 - - - - WNW 9 13 5 7 1007.2 1007.0 -
29/11:37am 28.3 - - - - WNW 9 11 5 6 1007.6 1007.6 -
29/11:34am 16.0 - - - - WNW 9 11 5 6 1007.6 1007.6 -
29/11:33am 28.8 - - - - WNW 9 11 5 6 1007.6 1007.6 -
29/11:32am 0.6 - - - - WNW 9 9 5 5 1007.6 1007.6 -
29/11:31am 28.8 - - - - WNW 9 11 5 6 1007.7 1007.7 -
29/11:30am 7.7 - - - - WNW 9 11 5 6 1007.7 1007.7 -
29/11:29am -19.3 - - - - W 7 11 4 6 1007.7 1007.7 -
29/11:28am -12.4 - - - - W 7 11 4 6 1007.8 1007.8 -
29/11:27am -32.8 - - - - W 7 11 4 6 1007.8 1007.8 -
29/11:26am -10.9 - - - - WSW 7 11 4 6 1007.8 1007.8 -
29/11:25am 5.9 - - - - WSW 7 11 4 6 1007.9 1007.9 -
29/11:24am 17.8 - - - - SW 7 11 4 6 1007.9 1007.9 -
29/11:22am 8.1 - - - - SW 7 11 4 6 1007.9 1007.9 -
29/11:21am 16.6 - - - - SW 6 9 3 5 1007.9 1007.9 -
29/11:20am 5.4 - - - - SW 6 9 3 5 1007.9 1007.9 -
29/11:00am 28.9 - - - - WSW 9 11 5 6 1008.0 1008.0 -
29/10:30am 28.5 - - - - SW 11 13 6 7 1008.0 1008.0 -
29/10:29am -28.8 - - - - SW 11 11 6 6 1008.1 1008.1 -
29/10:04am 28.4 - - - - SW 11 13 6 7 1008.2 1008.2 -
29/10:03am 11.6 - - - - SW 11 13 6 7 1008.2 1008.2 -
29/10:02am -7.3 - - - - SW 11 13 6 7 1008.2 1008.2 -
29/10:01am -18.0 - - - - SW 11 13 6 7 1008.2 1008.2 -
29/10:00am 28.4 - - - - SW 11 13 6 7 1008.3 1008.0 -
29/09:30am - - - - - W 9 11 5 6 1008.5 1008.5 -
29/09:00am - - - - - WSW 13 17 7 9 1008.5 1008.4 -
29/08:30am - - - - - WSW 15 17 8 9 1008.1 1008.1 -
29/08:00am - - - - - WSW 19 24 10 13 1007.9 1007.9 -
29/07:30am - - - - - W 22 28 12 15 1007.7 1007.7 -
29/07:00am - - - - - W 22 28 12 15 1007.4 1007.4 -
29/06:30am - - - - - W 24 30 13 16 1007.0 1007.0 -
29/06:00am - - - - - W 22 28 12 15 1006.4 1006.5 -
29/05:30am - - - - - W 24 30 13 16 1005.9 1005.9 -
29/05:00am - - - - - WNW 24 30 13 16 1005.5 1005.5 -
29/04:30am - - - - - W 24 30 13 16 1005.2 1005.2 -
29/04:00am - - - - - W 24 28 13 15 1005.3 1005.2 -
29/03:30am - - - - - W 24 30 13 16 1005.4 1005.4 -
29/03:00am - - - - - WNW 22 28 12 15 1005.2 1005.1 -
29/02:30am - - - - - W 19 20 10 11 1005.4 1005.4 -
29/02:00am - - - - - W 19 24 10 13 1005.5 1005.3 -
29/01:30am - - - - - W 22 26 12 14 1005.5 1005.5 -
29/01:00am - - - - - W 20 24 11 13 1005.5 1005.5 -
29/12:30am - - - - - W 20 26 11 14 1005.9 1005.9 -
29/12:00am - - - - - W 20 24 11 13 1006.2 1006.0 -
 
Date/Time
WST
Temp
°C
App
Temp
°C
Dew
Point
Rel
Hum
%
Delta-T
°C
Wind Press
QNH
hPa
Press
MSL
hPa
Rain
since 9 am
mm
Dir
 
Spd
km/h
Gust
km/h
Spd
kts
Gust
kts
28/11:30pm - - - - - W 20 26 11 14 1006.4 1006.4 -
28/11:00pm - - - - - W 22 28 12 15 1006.4 1006.3 -
28/10:30pm - - - - - W 24 28 13 15 1006.5 1006.5 -
28/10:00pm - - - - - W 24 30 13 16 1006.6 1006.5 -
28/09:30pm - - - - - WSW 22 28 12 15 1006.3 1006.3 -
28/09:00pm - - - - - W 22 30 12 16 1006.3 1006.2 -
28/08:30pm - - - - - W 24 30 13 16 1006.2 1006.2 -
28/08:00pm -48.9 - - - - W 20 26 11 14 1006.0 1005.9 -
28/07:30pm - - - - - WSW 20 26 11 14 1005.9 1005.9 -
28/07:17pm -43.5 - - - - WSW 20 28 11 15 1005.7 1005.7 -
28/07:16pm -11.2 - - - - WSW 22 28 12 15 1005.7 1005.7 -
28/07:15pm 12.2 - - - - WSW 22 28 12 15 1005.7 1005.7 -
28/07:14pm 3.0 - - - - WSW 22 28 12 15 1005.7 1005.7 -
28/07:13pm -23.4 - - - - W 22 28 12 15 1005.6 1005.6 -
28/07:12pm -42.0 - - - - W 22 28 12 15 1005.6 1005.6 -
28/07:11pm 9.9 - - - - W 22 28 12 15 1005.7 1005.7 -
28/07:10pm 20.4 - - - - W 22 28 12 15 1005.6 1005.6 -
28/07:08pm 28.1 - - - - W 22 28 12 15 1005.6 1005.6 -
28/07:06pm 22.6 - - - - W 22 28 12 15 1005.6 1005.6 -
28/07:03pm 28.2 - - - - W 20 28 11 15 1005.6 1005.6 -
28/07:02pm 10.8 - - - - W 20 28 11 15 1005.7 1005.7 -
28/07:01pm -1.4 - - - - W 20 28 11 15 1005.7 1005.7 -
28/07:00pm 28.1 - - - - W 20 28 11 15 1005.7 1005.5 -
28/06:55pm 13.9 - - - - WSW 20 24 11 13 1005.6 1005.6 -
28/06:54pm 3.2 - - - - WSW 20 24 11 13 1005.6 1005.6 -
28/06:30pm 28.3 - - - - WSW 20 24 11 13 1005.5 1005.5 -
28/06:24pm 28.3 - - - - WSW 19 24 10 13 1005.4 1005.4 -
28/06:23pm 22.3 - - - - WSW 17 24 9 13 1005.4 1005.4 -
28/06:22pm -49.4 - - - - WSW 17 24 9 13 1005.5 1005.5 -
28/06:18pm 28.3 - - - - WSW 17 20 9 11 1005.5 1005.5 -
28/06:17pm 9.2 - - - - WSW 17 20 9 11 1005.5 1005.5 -
28/06:00pm 28.3 - - - - WSW 17 22 9 12 1005.4 1005.3 -
28/05:30pm 28.4 - - - - WSW 20 24 11 13 1005.2 1005.2 -
28/05:00pm 28.3 - - - - WSW 20 24 11 13 1004.8 1004.9 -
28/04:30pm 28.2 - - - - WSW 20 24 11 13 1004.7 1004.7 -
28/04:00pm 28.6 - - - - WSW 19 26 10 14 1004.6 1004.6 -
28/03:46pm 28.2 - - - - WSW 19 24 10 13 1004.8 1004.8 -
28/03:45pm -37.2 - - - - WSW 19 22 10 12 1004.8 1004.8 -
28/03:30pm 28.3 - - - - WSW 19 24 10 13 1005.0 1005.0 -
28/03:00pm 28.2 - - - - WSW 19 22 10 12 1005.1 1005.0 -
28/02:30pm 28.6 - - - - WSW 17 20 9 11 1005.3 1005.3 -
28/02:12pm 28.4 - - - - WSW 17 20 9 11 1005.4 1005.4 -
28/02:11pm 12.2 - - - - WSW 19 20 10 11 1005.4 1005.4 -
28/02:00pm 28.3 - - - - WSW 17 22 9 12 1005.5 1005.4 -
28/01:30pm 28.3 - - - - WSW 19 20 10 11 1005.8 1005.8 -
28/01:00pm 28.2 - - - - SW 19 20 10 11 1005.8 1005.7 -
28/12:30pm 28.2 - - - - WSW 20 24 11 13 1006.0 1006.0 -
28/12:01pm 28.5 - - - - WSW 19 20 10 11 1006.5 1006.5 -
28/12:00pm 28.3 - - - - WSW 19 20 10 11 1006.5 1006.3 -
28/11:59am -15.4 - - - - WSW 19 20 10 11 1006.5 1006.5 -
28/11:30am 28.3 - - - - WSW 19 22 10 12 1007.0 1007.0 -
28/11:00am 28.3 - - - - WSW 20 24 11 13 1007.3 1007.1 -
28/10:30am 28.3 - - - - SW 20 24 11 13 1007.6 1007.6 -
28/10:00am 28.1 - - - - WSW 19 24 10 13 1008.0 1007.7 -
28/09:30am 28.1 - - - - WSW 20 24 11 13 1007.8 1007.8 -
28/09:00am 28.0 - - - - WSW 19 20 10 11 1007.8 1007.7 -
28/08:30am - - - - - SW 20 24 11 13 1007.7 1007.7 -
28/08:00am 28.1 - - - - WSW 19 20 10 11 1007.6 1007.6 -
28/07:30am - - - - - WSW 19 24 10 13 1007.6 1007.6 -
28/07:00am - - - - - WSW 19 22 10 12 1007.2 1007.3 -
28/06:30am - - - - - WSW 22 26 12 14 1006.9 1006.9 -
28/06:00am - - - - - WSW 20 26 11 14 1006.3 1006.4 -
28/05:30am - - - - - WSW 26 30 14 16 1005.7 1005.7 -
28/05:00am - - - - - WSW 24 28 13 15 1005.4 1005.4 -
28/04:30am - - - - - WSW 26 30 14 16 1005.1 1005.1 -
28/04:00am - - - - - W 22 26 12 14 1005.0 1004.9 -
28/03:30am - - - - - W 22 28 12 15 1005.0 1005.0 -
28/03:00am - - - - - W 22 26 12 14 1005.0 1004.9 -
28/02:30am - - - - - WNW 22 28 12 15 1005.1 1005.1 -
28/02:00am - - - - - W 24 30 13 16 1005.0 1004.9 -
28/01:30am - - - - - W 22 28 12 15 1005.1 1005.1 -
28/01:00am - - - - - W 20 24 11 13 1005.5 1005.2 -
28/12:30am - - - - - W 20 24 11 13 1005.9 1005.9 -
28/12:00am - - - - - W 19 22 10 12 1006.1 1005.9 -
 
Date/Time
WST
Temp
°C
App
Temp
°C
Dew
Point
Rel
Hum
%
Delta-T
°C
Wind Press
QNH
hPa
Press
MSL
hPa
Rain
since 9 am
mm
Dir
 
Spd
km/h
Gust
km/h
Spd
kts
Gust
kts
27/11:30pm - - - - - WNW 19 24 10 13 1006.3 1006.3 -
27/11:00pm - - - - - WNW 19 22 10 12 1006.9 1006.7 -
27/10:30pm 28.1 - - - - W 17 20 9 11 1007.1 1007.1 -
27/10:00pm 28.3 - - - - W 17 19 9 10 1007.1 1007.0 -
27/09:30pm 28.3 - - - - W 17 19 9 10 1007.0 1007.0 -
27/09:00pm 28.3 - - - - W 15 17 8 9 1006.9 1006.8 -
27/08:30pm 28.5 - - - - WSW 13 15 7 8 1006.8 1006.8 -
27/08:00pm 28.4 - - - - WSW 13 17 7 9 1006.6 1006.5 -
27/07:30pm 28.4 - - - - WSW 13 17 7 9 1006.5 1006.5 -
27/07:00pm 28.4 - - - - WSW 13 15 7 8 1006.5 1006.5 -
27/06:30pm 28.5 - - - - WSW 13 15 7 8 1006.2 1006.2 -
27/06:00pm 28.6 - - - - WSW 11 13 6 7 1005.8 1005.8 -
27/05:30pm 28.6 - - - - WSW 13 17 7 9 1005.3 1005.3 -

Other Formats:

Comma delimited format used in spreadsheet applications
http://www.bom.gov.au/fwo/IDW60801/IDW60801.94207.axf

JavaScript Object Notation format (JSON) in row-major order
http://www.bom.gov.au/fwo/IDW60801/IDW60801.94207.json